sensor_id;sensor_type;location;lat;lon;timestamp;P1;durP1;ratioP1;P2;durP2;ratioP2
59828;SDS011;45708;51.848;107.620;2023-05-07T00:04:33;6.97;;;4.70;;
59828;SDS011;45708;51.848;107.620;2023-05-07T00:09:34;7.55;;;4.80;;
59828;SDS011;45708;51.848;107.620;2023-05-07T00:14:34;12.40;;;5.90;;
59828;SDS011;45708;51.848;107.620;2023-05-07T00:19:35;6.43;;;3.95;;
59828;SDS011;45708;51.848;107.620;2023-05-07T00:24:36;7.07;;;4.72;;
59828;SDS011;45708;51.848;107.620;2023-05-07T00:29:37;11.50;;;4.55;;
59828;SDS011;45708;51.848;107.620;2023-05-07T00:34:38;5.75;;;3.42;;
59828;SDS011;45708;51.848;107.620;2023-05-07T00:39:38;6.93;;;4.35;;
59828;SDS011;45708;51.848;107.620;2023-05-07T00:44:39;6.53;;;4.50;;
59828;SDS011;45708;51.848;107.620;2023-05-07T00:49:44;10.63;;;3.97;;
59828;SDS011;45708;51.848;107.620;2023-05-07T00:54:45;11.68;;;4.65;;
59828;SDS011;45708;51.848;107.620;2023-05-07T00:59:46;6.05;;;4.38;;
59828;SDS011;45708;51.848;107.620;2023-05-07T01:04:47;6.07;;;3.83;;
59828;SDS011;45708;51.848;107.620;2023-05-07T01:09:48;8.20;;;4.53;;
59828;SDS011;45708;51.848;107.620;2023-05-07T01:14:49;8.75;;;4.70;;
59828;SDS011;45708;51.848;107.620;2023-05-07T01:19:50;9.45;;;5.03;;
59828;SDS011;45708;51.848;107.620;2023-05-07T01:24:50;15.45;;;5.70;;
59828;SDS011;45708;51.848;107.620;2023-05-07T01:29:51;8.55;;;5.28;;
59828;SDS011;45708;51.848;107.620;2023-05-07T01:34:52;11.25;;;6.55;;
59828;SDS011;45708;51.848;107.620;2023-05-07T01:39:54;12.80;;;6.32;;
59828;SDS011;45708;51.848;107.620;2023-05-07T01:44:55;12.13;;;6.82;;
59828;SDS011;45708;51.848;107.620;2023-05-07T01:49:56;17.42;;;10.00;;
59828;SDS011;45708;51.848;107.620;2023-05-07T01:54:58;17.77;;;11.00;;
59828;SDS011;45708;51.848;107.620;2023-05-07T01:59:59;23.00;;;9.77;;
59828;SDS011;45708;51.848;107.620;2023-05-07T02:04:59;12.95;;;7.78;;
59828;SDS011;45708;51.848;107.620;2023-05-07T02:10:00;13.75;;;7.10;;
59828;SDS011;45708;51.848;107.620;2023-05-07T02:15:01;10.02;;;7.05;;
59828;SDS011;45708;51.848;107.620;2023-05-07T02:20:02;16.65;;;7.88;;
59828;SDS011;45708;51.848;107.620;2023-05-07T02:25:03;12.32;;;7.30;;
59828;SDS011;45708;51.848;107.620;2023-05-07T02:30:05;15.98;;;9.35;;
59828;SDS011;45708;51.848;107.620;2023-05-07T02:35:06;13.18;;;8.90;;
59828;SDS011;45708;51.848;107.620;2023-05-07T02:40:07;14.75;;;9.18;;
59828;SDS011;45708;51.848;107.620;2023-05-07T02:45:09;17.73;;;10.38;;
59828;SDS011;45708;51.848;107.620;2023-05-07T02:50:10;18.55;;;12.82;;
59828;SDS011;45708;51.848;107.620;2023-05-07T02:55:11;15.02;;;11.32;;
59828;SDS011;45708;51.848;107.620;2023-05-07T03:00:12;15.02;;;10.00;;
59828;SDS011;45708;51.848;107.620;2023-05-07T03:05:15;14.85;;;10.25;;
59828;SDS011;45708;51.848;107.620;2023-05-07T03:10:15;22.15;;;12.13;;
59828;SDS011;45708;51.848;107.620;2023-05-07T03:15:16;15.07;;;11.07;;
59828;SDS011;45708;51.848;107.620;2023-05-07T03:20:17;25.55;;;11.00;;
59828;SDS011;45708;51.848;107.620;2023-05-07T03:25:18;13.63;;;9.23;;
59828;SDS011;45708;51.848;107.620;2023-05-07T03:30:19;12.77;;;8.93;;
59828;SDS011;45708;51.848;107.620;2023-05-07T03:35:19;15.20;;;10.95;;
59828;SDS011;45708;51.848;107.620;2023-05-07T03:40:20;14.88;;;11.05;;
59828;SDS011;45708;51.848;107.620;2023-05-07T03:45:21;17.45;;;10.10;;
59828;SDS011;45708;51.848;107.620;2023-05-07T03:50:22;20.70;;;9.95;;
59828;SDS011;45708;51.848;107.620;2023-05-07T03:55:23;18.70;;;11.65;;
59828;SDS011;45708;51.848;107.620;2023-05-07T04:00:24;17.10;;;10.48;;
59828;SDS011;45708;51.848;107.620;2023-05-07T04:05:25;18.25;;;12.00;;
59828;SDS011;45708;51.848;107.620;2023-05-07T04:10:25;16.65;;;9.02;;
59828;SDS011;45708;51.848;107.620;2023-05-07T04:15:26;13.73;;;8.88;;
59828;SDS011;45708;51.848;107.620;2023-05-07T04:20:27;16.05;;;10.40;;
59828;SDS011;45708;51.848;107.620;2023-05-07T04:25:28;15.23;;;10.88;;
59828;SDS011;45708;51.848;107.620;2023-05-07T04:30:29;15.25;;;11.23;;
59828;SDS011;45708;51.848;107.620;2023-05-07T04:35:29;18.08;;;11.23;;
59828;SDS011;45708;51.848;107.620;2023-05-07T04:40:30;24.38;;;12.15;;
59828;SDS011;45708;51.848;107.620;2023-05-07T04:45:31;15.63;;;10.98;;
59828;SDS011;45708;51.848;107.620;2023-05-07T04:50:32;19.70;;;10.00;;
59828;SDS011;45708;51.848;107.620;2023-05-07T04:55:33;29.60;;;10.70;;
59828;SDS011;45708;51.848;107.620;2023-05-07T05:00:34;25.50;;;12.93;;
59828;SDS011;45708;51.848;107.620;2023-05-07T05:05:35;13.63;;;8.60;;
59828;SDS011;45708;51.848;107.620;2023-05-07T05:10:35;34.83;;;11.60;;
59828;SDS011;45708;51.848;107.620;2023-05-07T05:15:36;19.08;;;9.45;;
59828;SDS011;45708;51.848;107.620;2023-05-07T05:20:37;18.60;;;10.30;;
59828;SDS011;45708;51.848;107.620;2023-05-07T05:25:38;13.48;;;8.40;;
59828;SDS011;45708;51.848;107.620;2023-05-07T05:30:39;16.73;;;11.57;;
59828;SDS011;45708;51.848;107.620;2023-05-07T05:35:40;17.58;;;11.30;;
59828;SDS011;45708;51.848;107.620;2023-05-07T05:40:40;20.50;;;12.30;;
59828;SDS011;45708;51.848;107.620;2023-05-07T05:45:41;14.90;;;10.45;;
59828;SDS011;45708;51.848;107.620;2023-05-07T05:50:42;15.63;;;10.70;;
59828;SDS011;45708;51.848;107.620;2023-05-07T05:55:43;14.45;;;10.50;;
59828;SDS011;45708;51.848;107.620;2023-05-07T06:00:44;15.93;;;11.10;;
59828;SDS011;45708;51.848;107.620;2023-05-07T06:05:46;31.92;;;11.45;;
59828;SDS011;45708;51.848;107.620;2023-05-07T06:10:47;17.55;;;12.23;;
59828;SDS011;45708;51.848;107.620;2023-05-07T06:15:48;12.68;;;9.98;;
59828;SDS011;45708;51.848;107.620;2023-05-07T06:20:49;13.50;;;10.25;;
59828;SDS011;45708;51.848;107.620;2023-05-07T06:25:51;13.38;;;9.68;;
59828;SDS011;45708;51.848;107.620;2023-05-07T06:30:52;15.82;;;10.85;;
59828;SDS011;45708;51.848;107.620;2023-05-07T06:35:53;12.30;;;10.40;;
59828;SDS011;45708;51.848;107.620;2023-05-07T06:40:53;28.67;;;10.40;;
59828;SDS011;45708;51.848;107.620;2023-05-07T06:45:54;27.30;;;11.73;;
59828;SDS011;45708;51.848;107.620;2023-05-07T06:50:55;18.88;;;9.70;;
59828;SDS011;45708;51.848;107.620;2023-05-07T06:55:56;16.15;;;8.82;;
59828;SDS011;45708;51.848;107.620;2023-05-07T07:00:57;15.25;;;9.82;;
59828;SDS011;45708;51.848;107.620;2023-05-07T07:05:58;43.25;;;12.40;;
59828;SDS011;45708;51.848;107.620;2023-05-07T07:10:59;14.07;;;9.13;;
59828;SDS011;45708;51.848;107.620;2023-05-07T07:16:00;14.80;;;9.63;;
59828;SDS011;45708;51.848;107.620;2023-05-07T07:21:01;15.45;;;10.23;;
59828;SDS011;45708;51.848;107.620;2023-05-07T07:26:01;27.17;;;11.40;;
59828;SDS011;45708;51.848;107.620;2023-05-07T07:31:02;15.15;;;11.50;;
59828;SDS011;45708;51.848;107.620;2023-05-07T07:36:04;14.82;;;10.88;;
59828;SDS011;45708;51.848;107.620;2023-05-07T07:41:07;14.73;;;11.20;;
59828;SDS011;45708;51.848;107.620;2023-05-07T07:46:09;13.93;;;10.50;;
59828;SDS011;45708;51.848;107.620;2023-05-07T07:51:10;13.52;;;9.50;;
59828;SDS011;45708;51.848;107.620;2023-05-07T07:56:10;18.85;;;11.32;;
59828;SDS011;45708;51.848;107.620;2023-05-07T08:01:11;18.63;;;10.50;;
59828;SDS011;45708;51.848;107.620;2023-05-07T08:06:12;14.10;;;8.63;;
59828;SDS011;45708;51.848;107.620;2023-05-07T08:11:14;16.55;;;8.88;;
59828;SDS011;45708;51.848;107.620;2023-05-07T08:16:15;13.98;;;9.63;;
59828;SDS011;45708;51.848;107.620;2023-05-07T08:21:16;18.50;;;10.07;;
59828;SDS011;45708;51.848;107.620;2023-05-07T08:26:17;16.70;;;11.73;;
59828;SDS011;45708;51.848;107.620;2023-05-07T08:31:18;14.10;;;10.73;;
59828;SDS011;45708;51.848;107.620;2023-05-07T08:36:19;16.52;;;10.48;;
59828;SDS011;45708;51.848;107.620;2023-05-07T08:41:19;15.50;;;9.85;;
59828;SDS011;45708;51.848;107.620;2023-05-07T08:46:21;14.07;;;9.45;;
59828;SDS011;45708;51.848;107.620;2023-05-07T08:51:22;11.75;;;9.55;;
59828;SDS011;45708;51.848;107.620;2023-05-07T08:56:23;11.68;;;8.85;;
59828;SDS011;45708;51.848;107.620;2023-05-07T09:01:24;16.42;;;10.35;;
59828;SDS011;45708;51.848;107.620;2023-05-07T09:06:26;15.48;;;10.10;;
59828;SDS011;45708;51.848;107.620;2023-05-07T09:11:27;12.30;;;8.48;;
59828;SDS011;45708;51.848;107.620;2023-05-07T09:16:28;12.13;;;8.50;;
59828;SDS011;45708;51.848;107.620;2023-05-07T09:21:30;16.85;;;8.85;;
59828;SDS011;45708;51.848;107.620;2023-05-07T09:26:31;11.55;;;9.05;;
59828;SDS011;45708;51.848;107.620;2023-05-07T09:31:32;11.77;;;8.45;;
59828;SDS011;45708;51.848;107.620;2023-05-07T09:36:36;10.77;;;7.47;;
59828;SDS011;45708;51.848;107.620;2023-05-07T09:41:44;10.88;;;8.00;;
59828;SDS011;45708;51.848;107.620;2023-05-07T09:46:45;13.02;;;8.35;;
59828;SDS011;45708;51.848;107.620;2023-05-07T09:51:50;13.40;;;8.32;;
59828;SDS011;45708;51.848;107.620;2023-05-07T09:56:52;12.95;;;9.73;;
59828;SDS011;45708;51.848;107.620;2023-05-07T10:01:56;10.68;;;7.30;;
59828;SDS011;45708;51.848;107.620;2023-05-07T10:06:58;8.75;;;7.32;;
59828;SDS011;45708;51.848;107.620;2023-05-07T10:12:00;11.38;;;6.85;;
59828;SDS011;45708;51.848;107.620;2023-05-07T10:17:02;10.63;;;6.43;;
59828;SDS011;45708;51.848;107.620;2023-05-07T10:22:04;9.02;;;6.15;;
59828;SDS011;45708;51.848;107.620;2023-05-07T10:27:09;9.27;;;7.03;;
59828;SDS011;45708;51.848;107.620;2023-05-07T10:37:40;11.02;;;7.05;;
59828;SDS011;45708;51.848;107.620;2023-05-07T10:42:57;9.20;;;5.63;;
59828;SDS011;45708;51.848;107.620;2023-05-07T11:03:26;10.02;;;5.68;;
59828;SDS011;45708;51.848;107.620;2023-05-07T11:08:52;10.10;;;6.70;;
59828;SDS011;45708;51.848;107.620;2023-05-07T11:13:52;12.02;;;7.38;;
59828;SDS011;45708;51.848;107.620;2023-05-07T11:18:54;11.07;;;6.80;;
59828;SDS011;45708;51.848;107.620;2023-05-07T11:23:56;10.10;;;6.00;;
59828;SDS011;45708;51.848;107.620;2023-05-07T11:28:57;15.77;;;9.60;;
59828;SDS011;45708;51.848;107.620;2023-05-07T11:33:58;16.95;;;10.25;;
59828;SDS011;45708;51.848;107.620;2023-05-07T11:39:00;15.85;;;8.88;;
59828;SDS011;45708;51.848;107.620;2023-05-07T11:44:00;12.65;;;8.88;;
59828;SDS011;45708;51.848;107.620;2023-05-07T11:49:01;15.60;;;9.35;;
59828;SDS011;45708;51.848;107.620;2023-05-07T11:54:05;13.68;;;9.55;;
59828;SDS011;45708;51.848;107.620;2023-05-07T11:59:06;10.27;;;7.75;;
59828;SDS011;45708;51.848;107.620;2023-05-07T12:04:07;14.52;;;9.02;;
59828;SDS011;45708;51.848;107.620;2023-05-07T12:09:07;17.42;;;10.07;;
59828;SDS011;45708;51.848;107.620;2023-05-07T12:14:08;22.05;;;12.68;;
59828;SDS011;45708;51.848;107.620;2023-05-07T12:19:09;15.95;;;11.00;;
59828;SDS011;45708;51.848;107.620;2023-05-07T12:24:10;19.48;;;12.23;;
59828;SDS011;45708;51.848;107.620;2023-05-07T12:29:11;20.48;;;13.10;;
59828;SDS011;45708;51.848;107.620;2023-05-07T12:34:12;29.70;;;16.73;;
59828;SDS011;45708;51.848;107.620;2023-05-07T12:39:13;50.95;;;24.83;;
59828;SDS011;45708;51.848;107.620;2023-05-07T12:44:16;47.40;;;24.98;;
59828;SDS011;45708;51.848;107.620;2023-05-07T12:49:16;50.83;;;25.20;;
59828;SDS011;45708;51.848;107.620;2023-05-07T12:54:30;51.63;;;26.02;;
59828;SDS011;45708;51.848;107.620;2023-05-07T12:59:35;53.13;;;27.92;;
59828;SDS011;45708;51.848;107.620;2023-05-07T13:04:37;59.35;;;29.02;;
59828;SDS011;45708;51.848;107.620;2023-05-07T13:09:38;38.17;;;23.63;;
59828;SDS011;45708;51.848;107.620;2023-05-07T13:14:39;32.03;;;17.80;;
59828;SDS011;45708;51.848;107.620;2023-05-07T13:19:40;21.25;;;13.25;;
59828;SDS011;45708;51.848;107.620;2023-05-07T13:24:41;19.13;;;12.93;;
59828;SDS011;45708;51.848;107.620;2023-05-07T13:29:41;28.73;;;14.77;;
59828;SDS011;45708;51.848;107.620;2023-05-07T13:34:42;26.73;;;13.73;;
59828;SDS011;45708;51.848;107.620;2023-05-07T13:39:43;23.92;;;12.32;;
59828;SDS011;45708;51.848;107.620;2023-05-07T13:44:44;22.85;;;13.10;;
59828;SDS011;45708;51.848;107.620;2023-05-07T13:49:45;21.63;;;10.25;;
59828;SDS011;45708;51.848;107.620;2023-05-07T13:54:45;13.68;;;7.32;;
59828;SDS011;45708;51.848;107.620;2023-05-07T13:59:46;8.07;;;4.95;;
59828;SDS011;45708;51.848;107.620;2023-05-07T14:04:47;6.45;;;3.50;;
59828;SDS011;45708;51.848;107.620;2023-05-07T14:09:48;3.30;;;2.53;;
59828;SDS011;45708;51.848;107.620;2023-05-07T14:14:49;5.30;;;2.97;;
59828;SDS011;45708;51.848;107.620;2023-05-07T14:19:49;16.90;;;9.43;;
59828;SDS011;45708;51.848;107.620;2023-05-07T14:24:50;17.15;;;9.10;;
59828;SDS011;45708;51.848;107.620;2023-05-07T14:29:51;13.05;;;7.63;;
59828;SDS011;45708;51.848;107.620;2023-05-07T14:34:53;11.18;;;7.25;;
59828;SDS011;45708;51.848;107.620;2023-05-07T14:39:54;8.20;;;5.47;;
59828;SDS011;45708;51.848;107.620;2023-05-07T14:44:54;19.70;;;9.25;;
59828;SDS011;45708;51.848;107.620;2023-05-07T14:49:55;12.45;;;5.95;;
59828;SDS011;45708;51.848;107.620;2023-05-07T14:54:56;4.25;;;3.08;;
59828;SDS011;45708;51.848;107.620;2023-05-07T14:59:57;6.30;;;3.92;;
59828;SDS011;45708;51.848;107.620;2023-05-07T15:04:58;15.25;;;7.20;;
59828;SDS011;45708;51.848;107.620;2023-05-07T15:09:59;10.65;;;4.95;;
59828;SDS011;45708;51.848;107.620;2023-05-07T15:15:00;12.63;;;4.60;;
59828;SDS011;45708;51.848;107.620;2023-05-07T15:20:01;54.85;;;17.50;;
59828;SDS011;45708;51.848;107.620;2023-05-07T15:25:02;46.47;;;15.73;;
59828;SDS011;45708;51.848;107.620;2023-05-07T15:30:04;31.60;;;11.02;;
59828;SDS011;45708;51.848;107.620;2023-05-07T15:35:06;28.08;;;11.23;;
59828;SDS011;45708;51.848;107.620;2023-05-07T15:40:08;32.85;;;9.07;;
59828;SDS011;45708;51.848;107.620;2023-05-07T15:45:09;21.60;;;8.55;;
59828;SDS011;45708;51.848;107.620;2023-05-07T15:50:10;29.10;;;11.10;;
59828;SDS011;45708;51.848;107.620;2023-05-07T15:55:11;26.33;;;10.25;;
59828;SDS011;45708;51.848;107.620;2023-05-07T16:00:12;16.48;;;7.80;;
59828;SDS011;45708;51.848;107.620;2023-05-07T16:05:13;15.95;;;5.57;;
59828;SDS011;45708;51.848;107.620;2023-05-07T16:10:14;18.65;;;8.07;;
59828;SDS011;45708;51.848;107.620;2023-05-07T16:15:14;26.45;;;9.48;;
59828;SDS011;45708;51.848;107.620;2023-05-07T16:20:15;24.77;;;10.30;;
59828;SDS011;45708;51.848;107.620;2023-05-07T16:25:16;27.20;;;11.05;;
59828;SDS011;45708;51.848;107.620;2023-05-07T16:30:17;29.55;;;12.85;;
59828;SDS011;45708;51.848;107.620;2023-05-07T16:35:18;68.57;;;16.83;;
59828;SDS011;45708;51.848;107.620;2023-05-07T16:40:19;46.83;;;10.00;;
59828;SDS011;45708;51.848;107.620;2023-05-07T16:45:20;44.53;;;11.45;;
59828;SDS011;45708;51.848;107.620;2023-05-07T16:50:22;16.00;;;7.72;;
59828;SDS011;45708;51.848;107.620;2023-05-07T16:55:23;41.25;;;9.98;;
59828;SDS011;45708;51.848;107.620;2023-05-07T17:00:24;27.77;;;10.02;;
59828;SDS011;45708;51.848;107.620;2023-05-07T17:05:25;26.02;;;9.77;;
59828;SDS011;45708;51.848;107.620;2023-05-07T17:10:26;29.30;;;8.57;;
59828;SDS011;45708;51.848;107.620;2023-05-07T17:15:26;21.65;;;7.07;;
59828;SDS011;45708;51.848;107.620;2023-05-07T17:20:27;10.55;;;3.97;;
59828;SDS011;45708;51.848;107.620;2023-05-07T17:25:30;10.10;;;5.30;;
59828;SDS011;45708;51.848;107.620;2023-05-07T17:30:31;10.70;;;4.18;;
59828;SDS011;45708;51.848;107.620;2023-05-07T17:35:32;5.43;;;3.75;;
59828;SDS011;45708;51.848;107.620;2023-05-07T17:40:33;11.07;;;4.90;;
59828;SDS011;45708;51.848;107.620;2023-05-07T17:45:35;30.13;;;8.00;;
59828;SDS011;45708;51.848;107.620;2023-05-07T17:50:36;51.05;;;12.48;;
59828;SDS011;45708;51.848;107.620;2023-05-07T17:55:40;28.50;;;9.38;;
59828;SDS011;45708;51.848;107.620;2023-05-07T18:00:44;36.13;;;8.77;;
59828;SDS011;45708;51.848;107.620;2023-05-07T18:05:45;14.60;;;6.07;;
59828;SDS011;45708;51.848;107.620;2023-05-07T18:10:46;13.60;;;6.18;;
59828;SDS011;45708;51.848;107.620;2023-05-07T18:15:46;41.88;;;9.10;;
59828;SDS011;45708;51.848;107.620;2023-05-07T18:20:48;102.18;;;18.75;;
59828;SDS011;45708;51.848;107.620;2023-05-07T18:25:50;81.00;;;16.77;;
59828;SDS011;45708;51.848;107.620;2023-05-07T18:30:51;52.60;;;13.75;;
59828;SDS011;45708;51.848;107.620;2023-05-07T18:35:53;31.55;;;11.82;;
59828;SDS011;45708;51.848;107.620;2023-05-07T18:41:01;28.20;;;10.43;;
59828;SDS011;45708;51.848;107.620;2023-05-07T18:46:03;33.00;;;10.77;;
59828;SDS011;45708;51.848;107.620;2023-05-07T18:51:03;21.38;;;7.72;;
59828;SDS011;45708;51.848;107.620;2023-05-07T18:56:05;20.25;;;7.60;;
59828;SDS011;45708;51.848;107.620;2023-05-07T19:01:06;12.30;;;4.82;;
59828;SDS011;45708;51.848;107.620;2023-05-07T19:06:07;15.48;;;8.32;;
59828;SDS011;45708;51.848;107.620;2023-05-07T19:11:08;9.23;;;5.28;;
59828;SDS011;45708;51.848;107.620;2023-05-07T19:16:09;7.75;;;5.45;;
59828;SDS011;45708;51.848;107.620;2023-05-07T19:21:10;6.18;;;4.28;;
59828;SDS011;45708;51.848;107.620;2023-05-07T19:26:11;16.60;;;5.50;;
59828;SDS011;45708;51.848;107.620;2023-05-07T19:31:18;7.25;;;3.17;;
59828;SDS011;45708;51.848;107.620;2023-05-07T19:36:20;4.53;;;3.73;;
59828;SDS011;45708;51.848;107.620;2023-05-07T19:41:21;12.68;;;5.93;;
59828;SDS011;45708;51.848;107.620;2023-05-07T19:46:22;7.00;;;4.20;;
59828;SDS011;45708;51.848;107.620;2023-05-07T19:51:22;10.98;;;4.93;;
59828;SDS011;45708;51.848;107.620;2023-05-07T19:56:23;11.68;;;3.67;;
59828;SDS011;45708;51.848;107.620;2023-05-07T20:01:24;3.85;;;2.50;;
59828;SDS011;45708;51.848;107.620;2023-05-07T20:06:25;21.08;;;5.72;;
59828;SDS011;45708;51.848;107.620;2023-05-07T20:11:26;5.70;;;2.95;;
59828;SDS011;45708;51.848;107.620;2023-05-07T20:16:27;14.63;;;7.30;;
59828;SDS011;45708;51.848;107.620;2023-05-07T20:21:27;13.70;;;6.13;;
59828;SDS011;45708;51.848;107.620;2023-05-07T20:26:28;8.88;;;4.18;;
59828;SDS011;45708;51.848;107.620;2023-05-07T20:31:30;6.38;;;3.72;;
59828;SDS011;45708;51.848;107.620;2023-05-07T20:36:31;3.55;;;2.20;;
59828;SDS011;45708;51.848;107.620;2023-05-07T20:41:32;3.00;;;2.13;;
59828;SDS011;45708;51.848;107.620;2023-05-07T20:46:33;7.07;;;3.60;;
59828;SDS011;45708;51.848;107.620;2023-05-07T20:51:33;13.23;;;6.05;;
59828;SDS011;45708;51.848;107.620;2023-05-07T20:56:34;9.38;;;5.85;;
59828;SDS011;45708;51.848;107.620;2023-05-07T21:01:35;10.40;;;4.88;;
59828;SDS011;45708;51.848;107.620;2023-05-07T21:06:36;10.63;;;5.75;;
59828;SDS011;45708;51.848;107.620;2023-05-07T21:11:36;15.57;;;7.30;;
59828;SDS011;45708;51.848;107.620;2023-05-07T21:16:37;12.13;;;6.18;;
59828;SDS011;45708;51.848;107.620;2023-05-07T21:21:38;11.88;;;6.00;;
59828;SDS011;45708;51.848;107.620;2023-05-07T21:26:40;14.40;;;6.90;;
59828;SDS011;45708;51.848;107.620;2023-05-07T21:31:41;11.70;;;5.70;;
59828;SDS011;45708;51.848;107.620;2023-05-07T21:36:42;18.38;;;7.78;;
59828;SDS011;45708;51.848;107.620;2023-05-07T21:41:43;15.65;;;6.72;;
59828;SDS011;45708;51.848;107.620;2023-05-07T21:46:44;19.48;;;7.30;;
59828;SDS011;45708;51.848;107.620;2023-05-07T21:51:44;15.98;;;8.98;;
59828;SDS011;45708;51.848;107.620;2023-05-07T21:56:45;17.45;;;8.77;;
59828;SDS011;45708;51.848;107.620;2023-05-07T22:01:46;21.13;;;10.48;;
59828;SDS011;45708;51.848;107.620;2023-05-07T22:06:47;17.58;;;8.73;;
59828;SDS011;45708;51.848;107.620;2023-05-07T22:11:47;15.43;;;7.88;;
59828;SDS011;45708;51.848;107.620;2023-05-07T22:16:49;20.90;;;9.45;;
59828;SDS011;45708;51.848;107.620;2023-05-07T22:21:50;22.00;;;8.32;;
59828;SDS011;45708;51.848;107.620;2023-05-07T22:26:51;14.50;;;7.38;;
59828;SDS011;45708;51.848;107.620;2023-05-07T22:31:52;17.10;;;9.70;;
59828;SDS011;45708;51.848;107.620;2023-05-07T22:36:53;21.02;;;10.50;;
59828;SDS011;45708;51.848;107.620;2023-05-07T22:41:53;20.05;;;9.75;;
59828;SDS011;45708;51.848;107.620;2023-05-07T22:46:54;19.38;;;9.30;;
59828;SDS011;45708;51.848;107.620;2023-05-07T22:52:02;21.30;;;10.05;;
59828;SDS011;45708;51.848;107.620;2023-05-07T22:57:03;23.90;;;12.02;;
59828;SDS011;45708;51.848;107.620;2023-05-07T23:02:04;19.90;;;12.68;;
59828;SDS011;45708;51.848;107.620;2023-05-07T23:07:05;19.48;;;11.65;;
59828;SDS011;45708;51.848;107.620;2023-05-07T23:12:06;24.55;;;14.23;;
59828;SDS011;45708;51.848;107.620;2023-05-07T23:17:06;35.83;;;14.90;;
59828;SDS011;45708;51.848;107.620;2023-05-07T23:22:07;34.28;;;14.32;;
59828;SDS011;45708;51.848;107.620;2023-05-07T23:27:08;27.10;;;15.25;;
59828;SDS011;45708;51.848;107.620;2023-05-07T23:32:09;29.05;;;15.82;;
59828;SDS011;45708;51.848;107.620;2023-05-07T23:37:09;35.80;;;17.38;;
59828;SDS011;45708;51.848;107.620;2023-05-07T23:42:10;33.67;;;17.80;;
59828;SDS011;45708;51.848;107.620;2023-05-07T23:47:11;29.48;;;17.40;;
59828;SDS011;45708;51.848;107.620;2023-05-07T23:52:12;32.20;;;17.58;;
59828;SDS011;45708;51.848;107.620;2023-05-07T23:57:13;33.33;;;16.42;;
